Terminal Aerodrome Forecast
Issued by NWS Duluth, MN

Home | Current Version | Previous Version | Text Only | Print | Product List | Glossary On
Versions: 1 2 3 4 5 6 7 8 9 10 11 12 13 14 15 16 17 18 19 20 21
000
FTUS43 KDLH 290834 AAB
TAFDLH
TAF AMD
KDLH 290834Z 2909/3006 21007KT P6SM BKN045
      TEMPO 2909/2911 03012G20KT 3SM -TSRA SCT015 BKN025CB
     FM291100 21008KT P6SM FEW025 BKN040
     FM291400 24010KT P6SM SCT050
     FM300000 18006KT P6SM SKC=

USA.gov is the U.S. government's official web portal to all federal, state and local government web resources and services.